Time;durP1;ratioP1;P1;durP2;ratioP2;P2;SDS_P1;SDS_P2;PMS_P1;PMS_P2;Temp;Humidity;BMP_temperature;BMP_pressure;BME280_temperature;BME280_humidity;BME280_pressure;Samples;Min_cycle;Max_cycle;Signal;HPM_P1;HPM_P2
2022/10/05 00:00:33;;;;;;;5.22;4.28;;;;;;;-145.49;100.00;62790.56;4953191;28;20033;-74
2022/10/05 00:03:09;;;;;;;6.97;4.07;;;;;;;-145.49;100.00;62790.56;4970822;28;20038;-74
2022/10/05 00:05:38;;;;;;;4.93;3.40;;;;;;;-145.49;100.00;62790.56;4952149;28;20035;-74
2022/10/05 00:08:24;;;;;;;4.25;3.35;;;;;;;-145.49;100.00;62790.56;4975322;28;20034;-74
2022/10/05 00:10:57;;;;;;;4.97;3.33;;;;;;;-145.49;100.00;62790.56;4969017;28;20031;-74
2022/10/05 00:13:29;;;;;;;3.05;2.78;;;;;;;-145.49;100.00;62790.56;4969636;28;20397;-74
2022/10/05 00:16:09;;;;;;;3.80;3.42;;;;;;;-145.49;100.00;62790.56;4951696;28;20039;-73
2022/10/05 00:18:38;;;;;;;8.47;3.97;;;;;;;-145.49;100.00;62790.56;4971611;28;20042;-74
2022/10/05 00:21:17;;;;;;;6.05;3.97;;;;;;;-145.49;100.00;62790.56;4972980;28;20420;-74
2022/10/05 00:23:43;;;;;;;4.55;3.92;;;;;;;-145.49;100.00;62790.56;4965877;28;20437;-74
2022/10/05 00:26:31;;;;;;;5.03;4.18;;;;;;;-145.49;100.00;62790.56;4969271;28;20045;-74
2022/10/05 00:29:05;;;;;;;4.80;3.13;;;;;;;-145.49;100.00;62790.56;4956293;28;20046;-73
2022/10/05 00:31:34;;;;;;;;;;;;;;;-145.49;100.00;62790.56;4969124;28;20035;-73
2022/10/05 00:34:03;;;;;;;5.13;3.28;;;;;;;-145.49;100.00;62790.56;4969899;28;19925;-74
2022/10/05 00:36:31;;;;;;;5.15;3.67;;;;;;;-145.49;100.00;62790.56;4969879;28;20488;-73
2022/10/05 00:39:02;;;;;;;4.78;3.28;;;;;;;-145.49;100.00;62790.56;4973931;28;20401;-74
2022/10/05 00:41:31;;;;;;;6.45;3.78;;;;;;;-145.49;100.00;62790.56;4971768;28;20669;-74
2022/10/05 00:44:24;;;;;;;7.80;3.55;;;;;;;-145.49;100.00;62790.56;4973596;28;20043;-73
2022/10/05 00:47:05;;;;;;;7.45;3.05;;;;;;;-145.49;100.00;62790.56;4956575;28;20521;-74
2022/10/05 00:50:09;;;;;;;5.80;3.55;;;;;;;-145.49;100.00;62790.56;4974115;28;20034;-73
2022/10/05 00:52:52;;;;;;;5.72;4.45;;;;;;;-145.49;100.00;62790.56;4970914;28;20401;-74
2022/10/05 00:55:35;;;;;;;6.00;4.15;;;;;;;-145.49;100.00;62790.56;4956909;28;20042;-74
2022/10/05 00:58:23;;;;;;;13.77;6.15;;;;;;;-145.49;100.00;62790.56;4973147;28;20046;-74
2022/10/05 01:01:19;;;;;;;8.18;4.07;;;;;;;-145.49;100.00;62790.56;4971781;28;20045;-74
2022/10/05 01:04:29;;;;;;;6.20;5.35;;;;;;;-145.49;100.00;62790.56;4954896;28;20058;-74
2022/10/05 01:07:20;;;;;;;6.45;4.47;;;;;;;-145.49;100.00;62790.56;4965512;28;20047;-74
2022/10/05 01:09:55;;;;;;;9.18;3.95;;;;;;;-145.49;100.00;62790.56;4972867;28;20042;-74
2022/10/05 01:12:48;;;;;;;11.18;6.60;;;;;;;-145.49;100.00;62790.56;4975009;28;20034;-74
2022/10/05 01:15:23;;;;;;;14.48;3.78;;;;;;;-145.49;100.00;62790.56;4972148;28;20047;-74
2022/10/05 01:18:23;;;;;;;6.47;4.10;;;;;;;-145.49;100.00;62790.56;4971609;28;20400;-74
2022/10/05 01:21:19;;;;;;;5.40;4.13;;;;;;;-145.49;100.00;62790.56;4969363;28;20034;-73
2022/10/05 01:23:56;;;;;;;5.43;4.28;;;;;;;-145.49;100.00;62790.56;4978765;28;20042;-74
2022/10/05 01:26:49;;;;;;;3.55;2.78;;;;;;;-145.49;100.00;62790.56;4972648;28;20045;-74
2022/10/05 01:29:15;;;;;;;5.75;3.63;;;;;;;-145.49;100.00;62790.56;4972003;28;20043;-74
2022/10/05 01:31:58;;;;;;;4.63;3.75;;;;;;;-145.49;100.00;62790.56;4972318;28;20054;-74
2022/10/05 01:34:45;;;;;;;13.88;5.47;;;;;;;-145.49;100.00;62790.56;4973343;28;20035;-74
2022/10/05 01:37:52;;;;;;;10.43;4.22;;;;;;;-145.49;100.00;62790.56;4952493;28;20050;-74
2022/10/05 01:40:25;;;;;;;5.28;3.20;;;;;;;-145.49;100.00;62790.56;4968355;28;20038;-74
2022/10/05 01:43:39;;;;;;;3.83;3.30;;;;;;;-145.49;100.00;62790.56;4972511;28;20046;-74
2022/10/05 01:46:37;;;;;;;20.50;5.45;;;;;;;-145.49;100.00;62790.56;4916307;29;20071;-73
2022/10/05 01:49:10;;;;;;;10.32;5.00;;;;;;;-145.49;100.00;62790.56;4972030;28;20511;-74
2022/10/05 01:51:54;;;;;;;20.15;7.38;;;;;;;-145.49;100.00;62790.56;4969548;28;20058;-74
2022/10/05 01:54:29;;;;;;;63.22;9.57;;;;;;;-145.49;100.00;62790.56;4958799;28;20038;-74
2022/10/05 01:57:04;;;;;;;24.15;6.57;;;;;;;-145.49;100.00;62790.56;4980273;28;20046;-74
2022/10/05 01:59:51;;;;;;;11.07;5.78;;;;;;;-145.49;100.00;62790.56;4951338;28;20420;-74
2022/10/05 02:02:20;;;;;;;5.20;4.70;;;;;;;-145.49;100.00;62790.56;4953583;28;20050;-74
2022/10/05 02:04:49;;;;;;;5.13;3.28;;;;;;;-145.49;100.00;62790.56;4973978;28;20035;-74
2022/10/05 02:07:26;;;;;;;4.85;3.28;;;;;;;-145.49;100.00;62790.56;4945440;28;20047;-74
2022/10/05 02:10:00;;;;;;;5.20;3.33;;;;;;;-145.49;100.00;62790.56;4955864;28;20057;-74
2022/10/05 02:12:31;;;;;;;4.25;3.60;;;;;;;-145.49;100.00;62790.56;4955638;28;20043;-74
2022/10/05 02:15:08;;;;;;;5.40;4.05;;;;;;;-145.49;100.00;62790.56;4970545;28;20489;-73
2022/10/05 02:17:40;;;;;;;4.78;3.38;;;;;;;-145.49;100.00;62790.56;4981072;28;20378;-74
2022/10/05 02:20:15;;;;;;;13.43;5.53;;;;;;;-145.49;100.00;62790.56;4972590;28;20481;-74
2022/10/05 02:22:50;;;;;;;7.97;4.47;;;;;;;-145.49;100.00;62790.56;4954334;28;20043;-74
2022/10/05 02:25:22;;;;;;;7.30;5.10;;;;;;;-145.49;100.00;62790.56;4967636;28;20038;-74
2022/10/05 02:27:56;;;;;;;6.13;3.78;;;;;;;-145.49;100.00;62790.56;4975766;28;20099;-74
2022/10/05 02:30:28;;;;;;;6.43;3.90;;;;;;;-145.49;100.00;62790.56;4955291;28;20046;-74
2022/10/05 02:33:09;;;;;;;4.78;4.10;;;;;;;-145.49;100.00;62790.56;4973591;28;20046;-74
2022/10/05 02:35:35;;;;;;;7.10;3.80;;;;;;;-145.49;100.00;62790.56;4972444;28;20543;-75
2022/10/05 02:38:08;;;;;;;3.85;3.15;;;;;;;-145.49;100.00;62790.56;4954625;28;20045;-74
2022/10/05 02:40:48;;;;;;;6.40;4.13;;;;;;;-145.49;100.00;62790.56;4970130;28;20041;-74
2022/10/05 02:43:25;;;;;;;6.72;3.78;;;;;;;-145.49;100.00;62790.56;4970732;28;20057;-75
2022/10/05 02:46:01;;;;;;;8.50;4.60;;;;;;;-145.49;100.00;62790.56;4956347;28;20038;-75
2022/10/05 02:48:36;;;;;;;8.32;3.67;;;;;;;-145.49;100.00;62790.56;4970412;28;20051;-75
2022/10/05 02:51:19;;;;;;;4.28;3.35;;;;;;;-145.49;100.00;62790.56;4971456;28;20041;-75
2022/10/05 02:53:53;;;;;;;12.05;4.07;;;;;;;-145.49;100.00;62790.56;4974348;28;20049;-75
2022/10/05 02:56:28;;;;;;;9.95;3.90;;;;;;;-145.49;100.00;62790.56;4954822;28;20050;-75
2022/10/05 02:58:58;;;;;;;11.35;4.55;;;;;;;-145.49;100.00;62790.56;4970484;28;20034;-75
2022/10/05 03:01:43;;;;;;;11.27;4.55;;;;;;;-145.49;100.00;62790.56;4969958;28;20051;-75
2022/10/05 03:04:18;;;;;;;29.85;5.65;;;;;;;-145.49;100.00;62790.56;4969752;28;20035;-75
2022/10/05 03:06:56;;;;;;;7.60;4.57;;;;;;;-145.49;100.00;62790.56;4970363;28;20369;-74
2022/10/05 03:09:30;;;;;;;6.82;3.60;;;;;;;-145.49;100.00;62790.56;4969776;28;20515;-74
2022/10/05 03:12:15;;;;;;;12.30;5.22;;;;;;;-145.49;100.00;62790.56;4970981;28;20046;-75
2022/10/05 03:14:54;;;;;;;4.38;3.60;;;;;;;-145.49;100.00;62790.56;4971748;28;20400;-75
2022/10/05 03:17:27;;;;;;;31.58;4.30;;;;;;;-145.49;100.00;62790.56;4970226;28;20042;-74
2022/10/05 03:20:12;;;;;;;;;;;;;;;-145.49;100.00;62790.56;4971270;28;20042;-73
2022/10/05 03:22:51;;;;;;;7.22;4.80;;;;;;;-145.49;100.00;62790.56;4945934;28;19921;-74
2022/10/05 03:25:47;;;;;;;20.35;6.63;;;;;;;-145.49;100.00;62790.56;4979353;28;20492;-74
2022/10/05 03:28:36;;;;;;;21.67;6.22;;;;;;;-145.49;100.00;62790.56;4971840;28;20043;-73
2022/10/05 03:31:09;;;;;;;8.38;4.25;;;;;;;-145.49;100.00;62790.56;4964802;28;20039;-73
2022/10/05 03:33:37;;;;;;;25.85;5.70;;;;;;;-145.49;100.00;62790.56;4977570;28;20045;-73
2022/10/05 03:36:15;;;;;;;11.43;5.25;;;;;;;-145.49;100.00;62790.56;4971723;28;20039;-74
2022/10/05 03:38:53;;;;;;;26.88;4.43;;;;;;;-145.49;100.00;62790.56;4972143;28;20045;-73
2022/10/05 03:41:30;;;;;;;10.45;5.40;;;;;;;-145.49;100.00;62790.56;4972059;28;20034;-73
2022/10/05 03:44:04;;;;;;;14.70;3.90;;;;;;;-145.49;100.00;62790.56;4998575;28;20404;-73
2022/10/05 03:47:09;;;;;;;9.68;3.97;;;;;;;-145.49;100.00;62790.56;4976404;28;20039;-73
2022/10/05 03:50:08;;;;;;;4.05;2.97;;;;;;;-145.49;100.00;62790.56;4990381;28;20114;-74
2022/10/05 03:52:49;;;;;;;23.25;5.35;;;;;;;-145.49;100.00;62790.56;4993596;28;20031;-74
2022/10/05 03:55:35;;;;;;;46.90;7.35;;;;;;;-145.49;100.00;62790.56;4972390;28;20042;-73
2022/10/05 03:58:11;;;;;;;47.80;5.47;;;;;;;-145.49;100.00;62790.56;4968095;28;20041;-74
2022/10/05 04:00:49;;;;;;;39.90;5.72;;;;;;;-145.49;100.00;62790.56;4969978;28;20042;-74
2022/10/05 04:03:24;;;;;;;11.27;4.43;;;;;;;-145.49;100.00;62790.56;4974626;28;20392;-74
2022/10/05 04:05:57;;;;;;;43.65;5.25;;;;;;;-145.49;100.00;62790.56;4976459;28;20061;-74
2022/10/05 04:08:51;;;;;;;17.67;3.70;;;;;;;-145.49;100.00;62790.56;4969100;28;20488;-74
2022/10/05 04:11:28;;;;;;;8.65;3.47;;;;;;;-145.49;100.00;62790.56;4964929;28;20042;-74
2022/10/05 04:14:11;;;;;;;22.65;5.43;;;;;;;-145.49;100.00;62790.56;4972611;28;20050;-74
2022/10/05 04:16:43;;;;;;;11.98;3.97;;;;;;;-145.49;100.00;62790.56;4971951;28;20511;-74
2022/10/05 04:19:19;;;;;;;21.92;4.25;;;;;;;-145.49;100.00;62790.56;4968854;28;20042;-76
2022/10/05 04:22:00;;;;;;;38.88;6.95;;;;;;;-145.49;100.00;62790.56;4968118;28;20035;-74
2022/10/05 04:24:50;;;;;;;17.95;4.57;;;;;;;-145.49;100.00;62790.56;4962310;28;20400;-73
2022/10/05 04:27:21;;;;;;;22.10;3.78;;;;;;;-145.49;100.00;62790.56;4980698;28;20030;-73
2022/10/05 04:30:11;;;;;;;15.10;4.68;;;;;;;-145.49;100.00;62790.56;4969988;28;20035;-74
2022/10/05 04:32:41;;;;;;;12.60;3.70;;;;;;;-145.49;100.00;62790.56;4963512;28;20050;-73
2022/10/05 04:35:15;;;;;;;9.95;4.55;;;;;;;-145.49;100.00;62790.56;4959958;28;20046;-73
2022/10/05 04:38:01;;;;;;;9.32;3.05;;;;;;;-145.49;100.00;62790.56;4978678;28;20045;-73
2022/10/05 04:40:42;;;;;;;10.40;4.25;;;;;;;-145.49;100.00;62790.56;4938174;28;20043;-73
2022/10/05 04:43:32;;;;;;;35.67;4.80;;;;;;;-145.49;100.00;62790.56;4955285;28;20049;-73
2022/10/05 04:46:36;;;;;;;43.83;5.47;;;;;;;-145.49;100.00;62790.56;4956228;28;20053;-73
2022/10/05 04:49:25;;;;;;;39.22;5.90;;;;;;;-145.49;100.00;62790.56;4910701;29;20409;-73
2022/10/05 04:51:59;;;;;;;39.20;5.72;;;;;;;-145.49;100.00;62790.56;4971386;28;20039;-74
2022/10/05 04:55:00;;;;;;;36.60;6.50;;;;;;;-145.49;100.00;62790.56;4983286;28;20241;-73
2022/10/05 04:57:39;;;;;;;14.00;3.60;;;;;;;-145.49;100.00;62790.56;4985242;28;20484;-73
2022/10/05 05:00:25;;;;;;;20.67;3.47;;;;;;;-145.49;100.00;62790.56;4987535;28;20053;-74
2022/10/05 05:03:02;;;;;;;16.70;3.75;;;;;;;-145.49;100.00;62790.56;4980254;28;20050;-74
2022/10/05 05:05:31;;;;;;;18.60;4.93;;;;;;;-145.49;100.00;62790.56;4980618;28;20039;-73
2022/10/05 05:08:28;;;;;;;16.38;3.00;;;;;;;-145.49;100.00;62790.56;4970897;28;20046;-73
2022/10/05 05:11:13;;;;;;;13.70;3.90;;;;;;;-145.49;100.00;62790.56;4962991;28;20046;-74
2022/10/05 05:14:05;;;;;;;18.67;2.92;;;;;;;-145.49;100.00;62790.56;4964089;28;20508;-73
2022/10/05 05:16:40;;;;;;;17.02;3.20;;;;;;;-145.49;100.00;62790.56;4979744;28;20098;-73
2022/10/05 05:19:36;;;;;;;30.92;2.78;;;;;;;-145.49;100.00;62790.56;4972836;28;20046;-73
2022/10/05 05:22:24;;;;;;;14.85;2.40;;;;;;;-145.49;100.00;62790.56;4963873;28;20031;-73
2022/10/05 05:25:21;;;;;;;23.75;5.20;;;;;;;-145.49;100.00;62790.56;4985387;28;20042;-73
2022/10/05 05:28:07;;;;;;;7.75;2.20;;;;;;;-145.49;100.00;62790.56;4973121;28;20054;-73
2022/10/05 05:31:04;;;;;;;19.77;4.18;;;;;;;-145.49;100.00;62790.56;4985925;23;20051;-79
2022/10/05 05:33:41;;;;;;;27.33;3.08;;;;;;;-145.49;100.00;62790.56;4979616;28;20035;-80
2022/10/05 05:36:28;;;;;;;41.22;5.35;;;;;;;-145.49;100.00;62790.56;4936109;29;20406;-79
2022/10/05 05:39:13;;;;;;;30.98;7.28;;;;;;;-145.49;100.00;62790.56;4970298;28;20046;-80
2022/10/05 05:42:02;;;;;;;;;;;;;;;-145.49;100.00;62790.56;4966613;28;20039;-81
2022/10/05 05:44:41;;;;;;;18.17;3.00;;;;;;;-145.49;100.00;62790.56;4940568;28;20396;-80
2022/10/05 05:47:20;;;;;;;21.30;4.43;;;;;;;-145.49;100.00;62790.56;4946377;28;20054;-80
2022/10/05 05:50:09;;;;;;;30.38;3.53;;;;;;;-145.49;100.00;62790.56;4953346;29;20043;-80
2022/10/05 05:52:48;;;;;;;17.67;2.60;;;;;;;-145.49;100.00;62790.56;4954673;28;20509;-81
2022/10/05 05:55:43;;;;;;;19.42;3.25;;;;;;;-145.49;100.00;62790.56;4949073;28;20050;-80
2022/10/05 05:58:16;;;;;;;20.45;2.92;;;;;;;-145.49;100.00;62790.56;4961729;28;20477;-80
2022/10/05 06:00:52;;;;;;;4.90;2.50;;;;;;;-145.49;100.00;62790.56;4954724;28;20043;-80
2022/10/05 06:03:37;;;;;;;13.32;2.97;;;;;;;-145.49;100.00;62790.56;4954917;28;20039;-82
2022/10/05 06:06:10;;;;;;;9.23;3.05;;;;;;;-145.49;100.00;62790.56;4964902;28;20031;-82
2022/10/05 06:08:55;;;;;;;5.30;1.92;;;;;;;-145.49;100.00;62790.56;4953364;28;20038;-81
2022/10/05 06:11:52;;;;;;;2.80;2.60;;;;;;;-145.49;100.00;62790.56;4965531;28;20378;-81
2022/10/05 06:14:33;;;;;;;8.88;2.83;;;;;;;-145.49;100.00;62790.56;4946145;29;20040;-81
2022/10/05 06:17:08;;;;;;;4.10;2.65;;;;;;;-145.49;100.00;62790.56;4950736;28;20031;-81
2022/10/05 06:19:39;;;;;;;3.38;3.08;;;;;;;-145.49;100.00;62790.56;4945595;29;20525;-81
2022/10/05 06:22:38;;;;;;;2.72;2.50;;;;;;;-145.49;100.00;62790.56;4952865;29;20031;-81
2022/10/05 06:25:04;;;;;;;5.25;2.97;;;;;;;-145.49;100.00;62790.56;4951300;28;20422;-81
2022/10/05 06:27:36;;;;;;;6.03;4.10;;;;;;;-145.49;100.00;62790.56;4969217;28;20418;-81
2022/10/05 06:30:12;;;;;;;8.45;4.72;;;;;;;-145.49;100.00;62790.56;4946129;28;20031;-80
2022/10/05 06:32:52;;;;;;;6.15;3.55;;;;;;;-145.49;100.00;62790.56;4930013;29;20043;-80
2022/10/05 06:35:29;;;;;;;2.60;2.33;;;;;;;-145.49;100.00;62790.56;4953118;28;20039;-80
2022/10/05 06:38:16;;;;;;;6.13;3.95;;;;;;;-145.49;100.00;62790.56;4950568;28;20037;-80
2022/10/05 06:41:05;;;;;;;9.70;3.47;;;;;;;-145.49;100.00;62790.56;4950044;29;20031;-80
2022/10/05 06:43:59;;;;;;;3.38;2.97;;;;;;;-145.49;100.00;62790.56;4953125;29;20042;-81
2022/10/05 06:46:51;;;;;;;10.60;2.97;;;;;;;-145.49;100.00;62790.56;4952430;29;20424;-82
2022/10/05 06:49:52;;;;;;;4.22;2.92;;;;;;;-145.49;100.00;62790.56;4951348;28;20427;-82
2022/10/05 06:53:16;;;;;;;4.63;2.65;;;;;;;-145.49;100.00;62790.56;4954256;28;20398;-81
2022/10/05 06:55:48;;;;;;;3.83;2.92;;;;;;;-145.49;100.00;62790.56;4953700;28;20051;-80
2022/10/05 06:58:52;;;;;;;5.57;3.72;;;;;;;-145.49;100.00;62790.56;4957534;28;20046;-79
2022/10/05 07:01:35;;;;;;;3.97;3.58;;;;;;;-145.49;100.00;62790.56;4947593;29;20054;-82
2022/10/05 07:04:28;;;;;;;6.10;3.85;;;;;;;-145.49;100.00;62790.56;4936993;29;20060;-80
2022/10/05 07:06:58;;;;;;;6.15;4.90;;;;;;;-145.49;100.00;62790.56;4934771;29;20057;-80
2022/10/05 07:09:27;;;;;;;;;;;;;;;-145.49;100.00;62790.56;4952457;28;20043;-80
2022/10/05 07:12:16;;;;;;;6.95;4.93;;;;;;;-145.49;100.00;62790.56;4951068;28;20365;-81
2022/10/05 07:15:11;;;;;;;6.65;4.13;;;;;;;-145.49;100.00;62790.56;4952142;29;20031;-80
2022/10/05 07:18:14;;;;;;;6.65;4.32;;;;;;;-145.49;100.00;62790.56;4952229;29;20397;-81
2022/10/05 07:20:48;;;;;;;4.63;4.15;;;;;;;-145.49;100.00;62790.56;4948331;28;20043;-80
2022/10/05 07:23:37;;;;;;;4.05;3.53;;;;;;;-145.49;100.00;62790.56;4950926;28;20136;-81
2022/10/05 07:26:13;;;;;;;9.48;4.28;;;;;;;-145.49;100.00;62790.56;4950646;28;20101;-79
2022/10/05 07:28:44;;;;;;;5.63;2.80;;;;;;;-145.49;100.00;62790.56;4965504;28;20043;-81
2022/10/05 07:31:16;;;;;;;7.47;3.55;;;;;;;-145.49;100.00;62790.56;4950080;28;20047;-81
2022/10/05 07:33:55;;;;;;;5.07;3.60;;;;;;;-145.49;100.00;62790.56;4952901;29;20058;-81
2022/10/05 07:39:56;;;;;;;3.88;3.38;;;;;;;-145.49;100.00;62790.56;4949902;29;20427;-81
2022/10/05 07:42:36;;;;;;;5.38;4.10;;;;;;;-145.49;100.00;62790.56;4961497;28;20054;-82
2022/10/05 07:45:13;;;;;;;4.75;3.50;;;;;;;-145.49;100.00;62790.56;4951502;29;20039;-82
2022/10/05 07:47:57;;;;;;;3.55;2.63;;;;;;;-145.49;100.00;62790.56;4951056;29;20050;-81
2022/10/05 07:50:32;;;;;;;3.88;2.80;;;;;;;-145.49;100.00;62790.56;4946472;28;20042;-80
2022/10/05 07:53:27;;;;;;;3.92;3.20;;;;;;;-145.49;100.00;62790.56;4963304;28;20042;-80
2022/10/05 07:56:00;;;;;;;3.97;3.20;;;;;;;-145.49;100.00;62790.56;4952842;28;20047;-81
2022/10/05 07:58:43;;;;;;;9.25;4.25;;;;;;;-145.49;100.00;62790.56;4950535;28;20054;-80
2022/10/05 08:01:23;;;;;;;4.57;3.42;;;;;;;-145.49;100.00;62790.56;4933789;28;20278;-82
2022/10/05 08:04:07;;;;;;;6.50;3.72;;;;;;;-145.49;100.00;62790.56;4935281;29;20050;-82
2022/10/05 08:06:38;;;;;;;5.47;3.45;;;;;;;-145.49;100.00;62790.56;4949741;28;20042;-83
2022/10/05 08:09:22;;;;;;;4.65;4.20;;;;;;;-145.49;100.00;62790.56;4951803;28;20038;-82
2022/10/05 08:12:01;;;;;;;7.22;3.90;;;;;;;-145.49;100.00;62790.56;4951041;28;20054;-82
2022/10/05 08:14:36;;;;;;;6.82;3.33;;;;;;;-145.49;100.00;62790.56;4946583;29;20046;-82
2022/10/05 08:17:33;;;;;;;4.10;3.42;;;;;;;-145.49;100.00;62790.56;4967649;28;20050;-82
2022/10/05 08:20:14;;;;;;;4.47;4.05;;;;;;;-145.49;100.00;62790.56;4952043;28;20043;-82
2022/10/05 08:22:53;;;;;;;4.22;3.28;;;;;;;-145.49;100.00;62790.56;4951860;28;20051;-82
2022/10/05 08:25:27;;;;;;;5.78;3.35;;;;;;;-145.49;100.00;62790.56;4952794;29;20035;-81
2022/10/05 08:28:07;;;;;;;3.85;2.88;;;;;;;-145.49;100.00;62790.56;4951679;28;20039;-82
2022/10/05 08:30:51;;;;;;;5.93;4.07;;;;;;;-145.49;100.00;62790.56;4954826;28;20043;-82
2022/10/05 08:33:21;;;;;;;4.32;3.55;;;;;;;-145.49;100.00;62790.56;4952040;28;20050;-80
2022/10/05 08:36:07;;;;;;;4.60;3.90;;;;;;;-145.49;100.00;62790.56;4948905;29;20031;-86
2022/10/05 08:38:38;;;;;;;4.75;4.20;;;;;;;-145.49;100.00;62790.56;4952787;28;20035;-81
2022/10/05 08:41:25;;;;;;;6.10;3.83;;;;;;;-145.49;100.00;62790.56;4937086;29;20477;-82
2022/10/05 08:44:38;;;;;;;6.97;4.30;;;;;;;-145.49;100.00;62790.56;4951755;29;20031;-80
2022/10/05 08:47:26;;;;;;;5.80;4.72;;;;;;;-145.49;100.00;62790.56;4950709;28;20112;-82
2022/10/05 08:50:33;;;;;;;5.38;4.28;;;;;;;-145.49;100.00;62790.56;4950965;28;20039;-82
2022/10/05 08:53:49;;;;;;;3.92;3.60;;;;;;;-145.49;100.00;62790.56;4952256;28;20038;-82
2022/10/05 08:56:36;;;;;;;6.15;4.00;;;;;;;-145.49;100.00;62790.56;4939221;29;20035;-81
2022/10/05 08:59:17;;;;;;;4.85;4.43;;;;;;;-145.49;100.00;62790.56;4955321;28;20036;-81
2022/10/05 09:02:08;;;;;;;5.68;4.55;;;;;;;-145.49;100.00;62790.56;4955448;28;20035;-82
2022/10/05 09:04:56;;;;;;;6.05;5.20;;;;;;;-145.49;100.00;62790.56;4953752;28;20035;-82
2022/10/05 09:08:02;;;;;;;12.35;9.02;;;;;;;-145.49;100.00;62790.56;4952617;28;20046;-85
2022/10/05 09:11:02;;;;;;;6.10;5.00;;;;;;;-145.49;100.00;62790.56;4953019;29;20046;-81
2022/10/05 09:13:59;;;;;;;6.03;4.97;;;;;;;-145.49;100.00;62790.56;4957131;28;20043;-81
2022/10/05 09:16:47;;;;;;;5.43;4.40;;;;;;;-145.49;100.00;62790.56;4951715;29;20031;-82
2022/10/05 09:19:33;;;;;;;7.68;5.22;;;;;;;-145.49;100.00;62790.56;4948589;29;20039;-82
2022/10/05 09:22:33;;;;;;;6.95;6.25;;;;;;;-145.49;100.00;62790.56;4971589;28;20058;-82
2022/10/05 09:25:27;;;;;;;8.10;5.65;;;;;;;-145.49;100.00;62790.56;4949266;29;20051;-82
2022/10/05 09:28:30;;;;;;;6.47;5.63;;;;;;;-145.49;100.00;62790.56;4954735;29;20039;-82
2022/10/05 09:31:05;;;;;;;7.03;5.78;;;;;;;-145.49;100.00;62790.56;4956330;29;20046;-83
2022/10/05 09:33:58;;;;;;;7.10;4.95;;;;;;;-145.49;100.00;62790.56;4955260;28;20073;-82
2022/10/05 09:36:45;;;;;;;8.63;6.25;;;;;;;-145.49;100.00;62790.56;4950966;29;20039;-82
2022/10/05 09:39:31;;;;;;;7.03;5.95;;;;;;;-145.49;100.00;62790.56;4948601;29;20039;-82
2022/10/05 09:42:10;;;;;;;9.15;5.43;;;;;;;-145.49;100.00;62790.56;4949049;29;20062;-82
2022/10/05 09:44:47;;;;;;;10.40;5.68;;;;;;;-145.49;100.00;62790.56;4954340;29;20046;-82
2022/10/05 09:47:44;;;;;;;7.15;5.97;;;;;;;-145.49;100.00;62790.56;4952512;29;20402;-82
2022/10/05 09:50:43;;;;;;;8.15;6.40;;;;;;;-145.49;100.00;62790.56;4939104;29;20035;-82
2022/10/05 09:53:31;;;;;;;6.60;5.47;;;;;;;-145.49;100.00;62790.56;4949835;29;20035;-82
2022/10/05 09:56:19;;;;;;;6.03;4.93;;;;;;;-145.49;100.00;62790.56;4956205;29;20035;-83
2022/10/05 09:59:06;;;;;;;13.23;6.30;;;;;;;-145.49;100.00;62790.56;4937232;29;20300;-83
2022/10/05 10:01:47;;;;;;;9.10;5.72;;;;;;;-145.49;100.00;62790.56;4938434;29;20044;-82
2022/10/05 10:04:40;;;;;;;8.15;5.32;;;;;;;-145.49;100.00;62790.56;4940949;28;20031;-82
2022/10/05 10:07:44;;;;;;;6.22;5.63;;;;;;;-145.49;100.00;62790.56;4947194;29;20043;-82
2022/10/05 10:10:27;;;;;;;;;;;;;;;-145.49;100.00;62790.56;4937473;29;20039;-82
2022/10/05 10:13:15;;;;;;;7.82;4.55;;;;;;;-145.49;100.00;62790.56;4937163;29;20324;-82
2022/10/05 10:15:53;;;;;;;7.00;4.03;;;;;;;-145.49;100.00;62790.56;4944854;28;20040;-82
2022/10/05 10:18:53;;;;;;;6.30;4.55;;;;;;;-145.49;100.00;62790.56;4955615;29;20039;-82
2022/10/05 10:21:29;;;;;;;8.73;4.43;;;;;;;-145.49;100.00;62790.56;4950822;29;20042;-82
2022/10/05 10:24:18;;;;;;;5.10;3.33;;;;;;;-145.49;100.00;62790.56;4954992;29;20493;-82
2022/10/05 10:26:56;;;;;;;4.03;3.63;;;;;;;-145.49;100.00;62790.56;4954685;28;20035;-82
2022/10/05 10:29:53;;;;;;;5.78;4.50;;;;;;;-145.49;100.00;62790.56;4947869;29;20050;-82
2022/10/05 10:32:46;;;;;;;6.45;4.00;;;;;;;-145.49;100.00;62790.56;4937722;29;20394;-82
2022/10/05 10:35:29;;;;;;;7.07;5.40;;;;;;;-145.49;100.00;62790.56;4935420;29;20043;-82
2022/10/05 10:38:21;;;;;;;5.75;5.22;;;;;;;-145.49;100.00;62790.56;4949107;28;20051;-83
2022/10/05 10:41:02;;;;;;;5.10;4.18;;;;;;;-145.49;100.00;62790.56;4951101;29;20035;-82
2022/10/05 10:44:01;;;;;;;12.98;4.80;;;;;;;-145.49;100.00;62790.56;4933955;29;20058;-82
2022/10/05 10:46:54;;;;;;;4.13;3.65;;;;;;;-145.49;100.00;62790.56;4953082;29;20042;-82
2022/10/05 10:50:03;;;;;;;4.65;4.13;;;;;;;-145.49;100.00;62790.56;4949155;29;20039;-82
2022/10/05 10:53:03;;;;;;;7.30;3.95;;;;;;;-145.49;100.00;62790.56;4917606;29;20055;-82
2022/10/05 10:55:56;;;;;;;3.95;3.10;;;;;;;-145.49;100.00;62790.56;4934751;29;20051;-82
2022/10/05 10:59:00;;;;;;;3.80;3.40;;;;;;;-145.49;100.00;62790.56;4950104;28;20062;-82
2022/10/05 11:01:47;;;;;;;5.07;3.63;;;;;;;-145.49;100.00;62790.56;4945660;29;20046;-83
2022/10/05 11:04:52;;;;;;;4.40;3.42;;;;;;;-145.49;100.00;62790.56;4955063;29;20050;-82
2022/10/05 11:07:52;;;;;;;6.50;4.50;;;;;;;-145.49;100.00;62790.56;4953840;28;20038;-82
2022/10/05 11:10:45;;;;;;;5.20;3.20;;;;;;;-145.49;100.00;62790.56;4947353;29;20123;-82
2022/10/05 11:14:01;;;;;;;3.67;3.00;;;;;;;-145.49;100.00;62790.56;4949144;29;20042;-82
2022/10/05 11:16:52;;;;;;;3.67;3.22;;;;;;;-145.49;100.00;62790.56;4954861;29;20058;-82
2022/10/05 11:19:19;;;;;;;5.93;3.50;;;;;;;-145.49;100.00;62790.56;4953424;28;20035;-82
2022/10/05 11:22:14;;;;;;;4.38;3.40;;;;;;;-145.49;100.00;62790.56;4953856;29;20054;-83
2022/10/05 11:25:18;;;;;;;4.18;3.33;;;;;;;-145.49;100.00;62790.56;4954967;29;20038;-82
2022/10/05 11:27:55;;;;;;;4.63;3.47;;;;;;;-145.49;100.00;62790.56;4953255;29;20054;-82
2022/10/05 11:30:55;;;;;;;7.07;3.25;;;;;;;-145.49;100.00;62790.56;4959781;23;20046;-76
2022/10/05 11:33:51;;;;;;;2.92;2.50;;;;;;;-145.49;100.00;62790.56;4968474;28;20413;-76
2022/10/05 11:37:06;;;;;;;3.05;2.70;;;;;;;-145.49;100.00;62790.56;4966559;28;20520;-76
2022/10/05 11:39:41;;;;;;;3.75;3.45;;;;;;;-145.49;100.00;62790.56;4952365;28;20428;-76
2022/10/05 11:42:25;;;;;;;4.25;3.10;;;;;;;-145.49;100.00;62790.56;4966311;28;20035;-75
2022/10/05 11:45:14;;;;;;;3.72;2.45;;;;;;;-145.49;100.00;62790.56;4971359;28;20039;-74
2022/10/05 11:47:43;;;;;;;6.95;2.90;;;;;;;-145.49;100.00;62790.56;4971917;28;20050;-74
2022/10/05 11:50:15;;;;;;;4.00;2.45;;;;;;;-145.49;100.00;62790.56;4970252;28;20057;-74
2022/10/05 11:52:52;;;;;;;6.13;2.70;;;;;;;-145.49;100.00;62790.56;4969719;28;20404;-75
2022/10/05 11:55:26;;;;;;;4.78;2.95;;;;;;;-145.49;100.00;62790.56;4973087;28;20030;-75
2022/10/05 11:57:55;;;;;;;2.65;2.42;;;;;;;-145.49;100.00;62790.56;4973123;28;20046;-75
2022/10/05 12:00:30;;;;;;;3.72;2.65;;;;;;;-145.49;100.00;62790.56;4967897;28;20054;-75
2022/10/05 12:03:11;;;;;;;3.80;3.10;;;;;;;-145.49;100.00;62790.56;4964281;28;20054;-75
2022/10/05 12:05:42;;;;;;;7.40;2.75;;;;;;;-145.49;100.00;62790.56;4972958;28;20401;-75
2022/10/05 12:08:29;;;;;;;4.35;2.85;;;;;;;-145.49;100.00;62790.56;4973078;28;20053;-75
2022/10/05 12:11:11;;;;;;;3.65;2.42;;;;;;;-145.49;100.00;62790.56;4969008;28;20476;-74
2022/10/05 12:13:50;;;;;;;5.60;2.53;;;;;;;-145.49;100.00;62790.56;4967397;28;20509;-75
2022/10/05 12:16:22;;;;;;;6.00;3.75;;;;;;;-145.49;100.00;62790.56;4972784;28;20134;-75
2022/10/05 12:19:25;;;;;;;8.53;3.23;;;;;;;-145.49;100.00;62790.56;4971861;28;20038;-75
2022/10/05 12:22:14;;;;;;;5.38;2.80;;;;;;;-145.49;100.00;62790.56;4965203;28;20051;-75
2022/10/05 12:24:46;;;;;;;3.22;2.90;;;;;;;-145.49;100.00;62790.56;4955696;28;20049;-75
2022/10/05 12:27:36;;;;;;;3.63;3.10;;;;;;;-145.49;100.00;62790.56;4972812;28;20361;-75